Time;durP1;ratioP1;P1;durP2;ratioP2;P2;SDS_P1;SDS_P2;PMS_P1;PMS_P2;Temp;Humidity;BMP_temperature;BMP_pressure;BME280_temperature;BME280_humidity;BME280_pressure;Samples;Min_cycle;Max_cycle;Signal;HPM_P1;HPM_P2
2023/12/17 00:00:54;;;;;;;19.15;8.70;;;;;;;-148.88;100.00;-17125.47;5093326;28;20110;-87
2023/12/17 00:03:20;;;;;;;27.60;19.33;;;;;;;-148.88;100.00;-17125.47;5092738;28;20055;-87
2023/12/17 00:05:48;;;;;;;26.40;18.58;;;;;;;-148.88;100.00;-17125.47;5093286;28;20048;-87
2023/12/17 00:08:17;;;;;;;26.05;9.20;;;;;;;-148.88;100.00;-17125.47;5093740;28;20107;-86
2023/12/17 00:10:42;;;;;;;19.90;9.02;;;;;;;-148.88;100.00;-17125.47;5092330;28;20027;-86
2023/12/17 00:13:07;;;;;;;22.30;8.82;;;;;;;-148.88;100.00;-17125.47;5093953;28;20024;-87
2023/12/17 00:15:33;;;;;;;27.35;20.02;;;;;;;-148.88;100.00;-17125.47;5093244;28;20016;-87
2023/12/17 00:17:58;;;;;;;32.03;21.27;;;;;;;-148.88;100.00;-17125.47;5092890;28;20056;-88
2023/12/17 00:20:23;;;;;;;32.60;21.08;;;;;;;-148.88;100.00;-17125.47;5094967;28;20452;-89
2023/12/17 00:22:52;;;;;;;23.52;10.65;;;;;;;-148.88;100.00;-17125.47;5094551;28;20043;-87
2023/12/17 00:25:25;;;;;;;32.95;22.83;;;;;;;-148.88;100.00;-17125.47;5096851;28;20073;-87
2023/12/17 00:27:51;;;;;;;22.48;10.45;;;;;;;-148.88;100.00;-17125.47;5097409;28;20110;-86
2023/12/17 00:30:23;;;;;;;32.78;23.30;;;;;;;-148.88;100.00;-17125.47;5096549;28;20024;-86
2023/12/17 00:32:49;;;;;;;23.67;10.23;;;;;;;-148.88;100.00;-17125.47;5095789;28;20383;-86
2023/12/17 00:35:15;;;;;;;32.50;23.02;;;;;;;-148.88;100.00;-17125.47;5095179;28;20562;-87
2023/12/17 00:37:40;;;;;;;24.08;11.60;;;;;;;-148.88;100.00;-17125.47;5096425;28;20510;-87
2023/12/17 00:40:09;;;;;;;29.80;11.98;;;;;;;-148.88;100.00;-17125.47;5095481;28;20024;-86
2023/12/17 00:42:34;;;;;;;25.55;11.25;;;;;;;-148.88;100.00;-17125.47;5095564;28;20069;-87
2023/12/17 00:45:00;;;;;;;24.40;11.95;;;;;;;-148.88;100.00;-17125.47;5095609;28;20024;-88
2023/12/17 00:47:25;;;;;;;32.58;23.92;;;;;;;-148.88;100.00;-17125.47;5095373;28;20382;-88
2023/12/17 00:49:52;;;;;;;26.63;11.50;;;;;;;-148.88;100.00;-17125.47;5096160;28;20501;-88
2023/12/17 00:52:20;;;;;;;25.92;11.48;;;;;;;-148.88;100.00;-17125.47;5096003;28;20020;-87
2023/12/17 00:54:46;;;;;;;24.35;11.20;;;;;;;-148.88;100.00;-17125.47;5094952;28;20028;-86
2023/12/17 00:57:15;;;;;;;32.08;23.35;;;;;;;-148.88;100.00;-17125.47;5095473;28;20069;-87
2023/12/17 00:59:44;;;;;;;33.05;23.10;;;;;;;-148.88;100.00;-17125.47;5096003;28;20027;-87
2023/12/17 01:02:12;;;;;;;27.58;11.68;;;;;;;-148.88;100.00;-17125.47;5094689;28;20386;-88
2023/12/17 01:04:38;;;;;;;26.05;11.65;;;;;;;-148.88;100.00;-17125.47;5094061;28;20036;-88
2023/12/17 01:07:04;;;;;;;25.60;10.82;;;;;;;-148.88;100.00;-17125.47;5095865;28;20020;-87
2023/12/17 01:09:29;;;;;;;33.35;22.90;;;;;;;-148.88;100.00;-17125.47;5094763;28;20119;-87
2023/12/17 01:11:57;;;;;;;24.42;10.90;;;;;;;-148.88;100.00;-17125.47;5094113;28;20028;-87
2023/12/17 01:14:25;;;;;;;35.85;24.45;;;;;;;-148.88;100.00;-17125.47;5095205;28;20077;-87
2023/12/17 01:16:50;;;;;;;23.65;10.48;;;;;;;-148.88;100.00;-17125.47;5095042;28;20020;-86
2023/12/17 01:19:16;;;;;;;36.33;25.42;;;;;;;-148.88;100.00;-17125.47;5094181;28;20032;-87
2023/12/17 01:21:41;;;;;;;26.27;11.60;;;;;;;-148.88;100.00;-17125.47;5094710;28;20024;-87
2023/12/17 01:24:10;;;;;;;35.30;24.98;;;;;;;-148.88;100.00;-17125.47;5095383;28;20027;-86
2023/12/17 01:26:35;;;;;;;24.17;11.90;;;;;;;-148.88;100.00;-17125.47;5094388;28;20039;-87
2023/12/17 01:29:04;;;;;;;29.45;11.75;;;;;;;-148.88;100.00;-17125.47;5095249;28;20053;-87
2023/12/17 01:31:38;;;;;;;24.02;10.90;;;;;;;-148.88;100.00;-17125.47;5093593;28;20406;-87
2023/12/17 01:34:04;;;;;;;27.08;11.43;;;;;;;-148.88;100.00;-17125.47;5095228;28;20027;-86
2023/12/17 01:36:41;;;;;;;24.98;11.55;;;;;;;-148.88;100.00;-17125.47;5095486;28;20028;-87
2023/12/17 01:39:07;;;;;;;27.13;11.70;;;;;;;-148.88;100.00;-17125.47;5095444;28;20107;-87
2023/12/17 01:41:32;;;;;;;34.65;24.75;;;;;;;-148.88;100.00;-17125.47;5095118;28;20108;-86
2023/12/17 01:43:57;;;;;;;33.83;24.05;;;;;;;-148.88;100.00;-17125.47;5095678;28;20378;-88
2023/12/17 01:46:25;;;;;;;26.70;12.95;;;;;;;-148.88;100.00;-17125.47;5095039;28;20028;-85
2023/12/17 01:48:51;;;;;;;27.17;13.50;;;;;;;-148.88;100.00;-17125.47;5092768;28;20527;-86
2023/12/17 01:51:17;;;;;;;35.70;25.45;;;;;;;-148.88;100.00;-17125.47;5094371;28;20062;-88
2023/12/17 01:53:42;;;;;;;26.42;11.63;;;;;;;-148.88;100.00;-17125.47;5093884;28;20165;-86
2023/12/17 01:56:10;;;;;;;35.35;24.75;;;;;;;-148.88;100.00;-17125.47;5095223;28;20032;-88
2023/12/17 01:58:36;;;;;;;33.15;14.27;;;;;;;-148.88;100.00;-17125.47;5094924;28;20098;-86
2023/12/17 02:01:04;;;;;;;26.80;12.65;;;;;;;-148.88;100.00;-17125.47;5094655;28;20028;-86
2023/12/17 02:03:34;;;;;;;38.08;25.75;;;;;;;-148.88;100.00;-17125.47;5094789;28;20055;-87
2023/12/17 02:06:00;;;;;;;34.92;25.17;;;;;;;-148.88;100.00;-17125.47;5094905;28;20077;-86
2023/12/17 02:08:26;;;;;;;29.42;12.23;;;;;;;-148.88;100.00;-17125.47;5093238;28;20023;-86
2023/12/17 02:10:56;;;;;;;33.88;24.00;;;;;;;-148.88;100.00;-17125.47;5094339;28;20028;-84
2023/12/17 02:13:22;;;;;;;27.02;11.40;;;;;;;-148.88;100.00;-17125.47;5094127;28;20082;-85
2023/12/17 02:15:56;;;;;;;29.83;13.18;;;;;;;-148.88;100.00;-17125.47;5094574;28;20475;-85
2023/12/17 02:18:21;;;;;;;37.92;25.52;;;;;;;-148.88;100.00;-17125.47;5094665;28;20028;-84
2023/12/17 02:20:47;;;;;;;27.27;11.75;;;;;;;-148.88;100.00;-17125.47;5093869;28;20170;-87
2023/12/17 02:23:12;;;;;;;34.80;22.92;;;;;;;-148.88;100.00;-17125.47;5094712;28;20035;-88
2023/12/17 02:29:05;;;;;;;29.40;11.70;;;;;;;-148.88;100.00;-17125.47;5094570;28;20402;-88
2023/12/17 02:31:31;;;;;;;27.55;11.43;;;;;;;-148.88;100.00;-17125.47;5093031;28;20027;-88
2023/12/17 02:33:56;;;;;;;36.78;25.75;;;;;;;-148.88;100.00;-17125.47;5094321;28;20470;-86
2023/12/17 02:36:21;;;;;;;25.35;11.45;;;;;;;-148.88;100.00;-17125.47;5094417;28;20032;-85
2023/12/17 02:38:47;;;;;;;26.00;12.38;;;;;;;-148.88;100.00;-17125.47;5094038;28;20020;-86
2023/12/17 02:41:21;;;;;;;27.17;11.57;;;;;;;-148.88;100.00;-17125.47;5092569;28;20553;-88
2023/12/17 02:43:47;;;;;;;34.10;24.13;;;;;;;-148.88;100.00;-17125.47;5093893;28;20048;-88
2023/12/17 02:46:18;;;;;;;27.65;11.05;;;;;;;-148.88;100.00;-17125.47;5092723;28;20460;-87
2023/12/17 02:48:55;;;;;;;33.00;23.10;;;;;;;-148.88;100.00;-17125.47;5093880;28;20020;-86
2023/12/17 02:51:20;;;;;;;32.67;23.67;;;;;;;-148.88;100.00;-17125.47;5092687;28;20403;-87
2023/12/17 02:53:54;;;;;;;30.95;12.32;;;;;;;-148.88;100.00;-17125.47;5094260;28;20035;-87
2023/12/17 02:56:20;;;;;;;25.98;11.00;;;;;;;-148.88;100.00;-17125.47;5094237;28;20107;-88
2023/12/17 02:58:51;;;;;;;30.70;11.27;;;;;;;-148.88;100.00;-17125.47;5093976;28;20057;-87
2023/12/17 03:01:16;;;;;;;27.42;11.60;;;;;;;-148.88;100.00;-17125.47;5094833;28;20488;-87
2023/12/17 03:03:42;;;;;;;29.13;12.30;;;;;;;-148.88;100.00;-17125.47;5094349;28;20062;-87
2023/12/17 03:06:07;;;;;;;33.78;13.15;;;;;;;-148.88;100.00;-17125.47;5093906;28;20485;-86
2023/12/17 03:08:33;;;;;;;34.38;24.38;;;;;;;-148.88;100.00;-17125.47;5092435;28;20040;-86
2023/12/17 03:10:58;;;;;;;30.23;12.77;;;;;;;-148.88;100.00;-17125.47;5093911;28;20501;-86
2023/12/17 03:13:24;;;;;;;24.20;11.05;;;;;;;-148.88;100.00;-17125.47;5092729;28;20024;-87
2023/12/17 03:15:52;;;;;;;34.80;24.63;;;;;;;-148.88;100.00;-17125.47;5092170;28;20024;-88
2023/12/17 03:18:18;;;;;;;29.35;11.45;;;;;;;-148.88;100.00;-17125.47;5092082;28;20115;-88
2023/12/17 03:20:49;;;;;;;27.48;11.45;;;;;;;-148.88;100.00;-17125.47;5093941;28;20111;-87
2023/12/17 03:23:15;;;;;;;27.60;11.75;;;;;;;-148.88;100.00;-17125.47;5093553;28;20024;-87
2023/12/17 03:25:41;;;;;;;27.45;12.93;;;;;;;-148.88;100.00;-17125.47;5093758;28;20020;-87
2023/12/17 03:28:06;;;;;;;26.98;11.65;;;;;;;-148.88;100.00;-17125.47;5094490;28;20027;-87
2023/12/17 03:30:40;;;;;;;28.75;13.10;;;;;;;-148.88;100.00;-17125.47;5093855;28;20035;-86
2023/12/17 03:33:10;;;;;;;32.47;23.30;;;;;;;-148.88;100.00;-17125.47;5093393;28;20024;-87
2023/12/17 03:35:39;;;;;;;32.92;23.92;;;;;;;-148.88;100.00;-17125.47;5094730;28;20102;-87
2023/12/17 03:38:08;;;;;;;28.83;11.38;;;;;;;-148.88;100.00;-17125.47;5093654;28;20028;-86
2023/12/17 03:40:36;;;;;;;29.25;12.73;;;;;;;-148.88;100.00;-17125.47;5092726;28;20478;-85
2023/12/17 03:43:02;;;;;;;32.10;12.75;;;;;;;-148.88;100.00;-17125.47;5091607;28;20493;-86
2023/12/17 03:45:27;;;;;;;38.30;24.70;;;;;;;-148.88;100.00;-17125.47;5093124;28;20058;-87
2023/12/17 03:47:52;;;;;;;34.20;24.35;;;;;;;-148.88;100.00;-17125.47;5093238;28;20050;-87
2023/12/17 03:50:21;;;;;;;35.40;23.88;;;;;;;-148.88;100.00;-17125.47;5093507;28;20020;-87
2023/12/17 03:52:47;;;;;;;28.00;12.48;;;;;;;-148.88;100.00;-17125.47;5093344;28;20021;-86
2023/12/17 03:55:14;;;;;;;28.75;12.55;;;;;;;-148.88;100.00;-17125.47;5096804;28;20094;-87
2023/12/17 03:57:39;;;;;;;27.15;13.88;;;;;;;-148.88;100.00;-17125.47;5097022;28;20028;-87
2023/12/17 04:00:06;;;;;;;28.60;11.95;;;;;;;-148.88;100.00;-17125.47;5095882;28;20118;-86
2023/12/17 04:02:32;;;;;;;30.27;21.02;;;;;;;-148.88;100.00;-17125.47;5095386;28;20409;-86
2023/12/17 04:04:57;;;;;;;25.13;11.20;;;;;;;-148.88;100.00;-17125.47;5095825;28;20035;-86
2023/12/17 04:07:23;;;;;;;29.88;22.92;;;;;;;-148.88;100.00;-17125.47;5097322;28;20509;-88
2023/12/17 04:09:49;;;;;;;30.95;23.00;;;;;;;-148.88;100.00;-17125.47;5096453;28;20081;-87
2023/12/17 04:12:18;;;;;;;32.72;23.98;;;;;;;-148.88;100.00;-17125.47;5095775;28;20020;-87
2023/12/17 04:14:43;;;;;;;27.70;11.55;;;;;;;-148.88;100.00;-17125.47;5095552;28;20089;-86
2023/12/17 04:17:09;;;;;;;27.45;11.90;;;;;;;-148.88;100.00;-17125.47;5096704;28;20020;-86
2023/12/17 04:19:34;;;;;;;23.17;11.15;;;;;;;-148.88;100.00;-17125.47;5096812;28;20086;-87
2023/12/17 04:22:00;;;;;;;26.58;11.38;;;;;;;-148.88;100.00;-17125.47;5096731;28;20390;-86
2023/12/17 04:24:27;;;;;;;25.92;11.23;;;;;;;-148.88;100.00;-17125.47;5095535;28;20054;-86
2023/12/17 04:26:53;;;;;;;29.25;11.55;;;;;;;-148.88;100.00;-17125.47;5097034;28;20028;-86
2023/12/17 04:29:18;;;;;;;28.52;21.73;;;;;;;-148.88;100.00;-17125.47;5095154;28;20028;-87
2023/12/17 04:31:44;;;;;;;26.48;11.18;;;;;;;-148.88;100.00;-17125.47;5096616;28;20016;-87
2023/12/17 04:34:10;;;;;;;24.92;10.90;;;;;;;-148.88;100.00;-17125.47;5095498;28;20081;-88
2023/12/17 04:36:43;;;;;;;25.98;11.10;;;;;;;-148.88;100.00;-17125.47;5096910;28;20497;-87
2023/12/17 04:39:12;;;;;;;31.47;21.63;;;;;;;-148.88;100.00;-17125.47;5095085;28;20108;-85
2023/12/17 04:41:38;;;;;;;24.77;11.05;;;;;;;-148.88;100.00;-17125.47;5095197;28;20260;-87
2023/12/17 04:44:03;;;;;;;25.65;11.23;;;;;;;-148.88;100.00;-17125.47;5097067;28;20024;-88
2023/12/17 04:46:32;;;;;;;21.77;10.40;;;;;;;-148.88;100.00;-17125.47;5095108;28;20027;-86
2023/12/17 04:49:08;;;;;;;;;;;;;;;;;;;;;
2023/12/17 04:51:33;;;;;;;26.05;12.65;;;;;;;-148.88;100.00;-17125.47;5096311;28;20026;-86
2023/12/17 04:54:02;;;;;;;24.55;10.82;;;;;;;-148.88;100.00;-17125.47;5094891;28;20503;-87
2023/12/17 04:56:27;;;;;;;29.25;21.08;;;;;;;-148.88;100.00;-17125.47;5095944;28;20028;-88
2023/12/17 04:58:53;;;;;;;24.58;11.75;;;;;;;-148.88;100.00;-17125.47;5096260;28;20066;-87
2023/12/17 05:01:18;;;;;;;26.95;11.15;;;;;;;-148.88;100.00;-17125.47;5095073;28;20447;-86
2023/12/17 05:03:44;;;;;;;25.05;10.63;;;;;;;-148.88;100.00;-17125.47;5095034;28;20027;-86
2023/12/17 05:06:12;;;;;;;25.75;11.55;;;;;;;-148.88;100.00;-17125.47;5095310;28;20509;-87
2023/12/17 05:08:40;;;;;;;20.83;9.70;;;;;;;-148.88;100.00;-17125.47;5095028;28;20027;-85
2023/12/17 05:11:06;;;;;;;24.65;11.20;;;;;;;-148.88;100.00;-17125.47;5094721;28;20059;-87
2023/12/17 05:13:31;;;;;;;27.63;20.33;;;;;;;-148.88;100.00;-17125.47;5095535;28;20024;-85
2023/12/17 05:15:59;;;;;;;22.38;10.55;;;;;;;-148.88;100.00;-17125.47;5096576;28;20034;-86
2023/12/17 05:18:25;;;;;;;25.38;11.55;;;;;;;-148.88;100.00;-17125.47;5094824;28;20393;-88
2023/12/17 05:20:50;;;;;;;23.85;11.40;;;;;;;-148.88;100.00;-17125.47;5095045;28;20027;-87
2023/12/17 05:23:16;;;;;;;28.45;21.33;;;;;;;-148.88;100.00;-17125.47;5094709;28;20020;-86
2023/12/17 05:25:41;;;;;;;28.92;21.08;;;;;;;-148.88;100.00;-17125.47;5095668;28;20023;-84
2023/12/17 05:28:11;;;;;;;24.15;10.80;;;;;;;-148.88;100.00;-17125.47;5095705;28;20024;-84
2023/12/17 05:30:43;;;;;;;22.50;10.55;;;;;;;-148.88;100.00;-17125.47;5094384;28;20059;-87
2023/12/17 05:33:14;;;;;;;22.42;10.43;;;;;;;-148.88;100.00;-17125.47;5095319;28;20470;-87
2023/12/17 05:35:39;;;;;;;29.75;12.80;;;;;;;-148.88;100.00;-17125.47;5094359;28;20024;-86
2023/12/17 05:38:05;;;;;;;29.05;21.52;;;;;;;-148.88;100.00;-17125.47;5095387;28;20027;-86
2023/12/17 05:40:30;;;;;;;27.80;20.77;;;;;;;-148.88;100.00;-17125.47;5095375;28;20478;-84
2023/12/17 05:42:59;;;;;;;22.90;11.18;;;;;;;-148.88;100.00;-17125.47;5095230;28;20421;-86
2023/12/17 05:45:25;;;;;;;23.50;10.48;;;;;;;-148.88;100.00;-17125.47;5093591;28;20465;-86
2023/12/17 05:47:50;;;;;;;25.13;11.48;;;;;;;-148.88;100.00;-17125.47;5095491;28;20107;-88
2023/12/17 05:50:16;;;;;;;31.05;22.20;;;;;;;-148.88;100.00;-17125.47;5093919;28;20494;-86
2023/12/17 05:52:47;;;;;;;27.25;11.52;;;;;;;-148.88;100.00;-17125.47;5095716;28;20024;-87
2023/12/17 05:55:12;;;;;;;28.40;21.50;;;;;;;-148.88;100.00;-17125.47;5094646;28;20042;-88
2023/12/17 05:57:37;;;;;;;30.10;23.00;;;;;;;-148.88;100.00;-17125.47;5095380;28;20467;-89
2023/12/17 06:00:03;;;;;;;24.65;11.48;;;;;;;-148.88;100.00;-17125.47;5093846;28;20406;-87
2023/12/17 06:02:34;;;;;;;31.02;23.35;;;;;;;-148.88;100.00;-17125.47;5095070;28;20020;-87
2023/12/17 06:05:00;;;;;;;24.02;11.27;;;;;;;-148.88;100.00;-17125.47;5093389;28;20024;-86
2023/12/17 06:07:25;;;;;;;25.83;12.18;;;;;;;-148.88;100.00;-17125.47;5094308;28;20092;-88
2023/12/17 06:09:51;;;;;;;26.20;11.45;;;;;;;-148.88;100.00;-17125.47;5093095;28;20107;-85
2023/12/17 06:12:17;;;;;;;29.73;13.13;;;;;;;-148.88;100.00;-17125.47;5093307;28;20031;-86
2023/12/17 06:14:48;;;;;;;28.02;12.43;;;;;;;-148.88;100.00;-17125.47;5095540;28;20484;-86
2023/12/17 06:17:13;;;;;;;24.05;11.65;;;;;;;-148.88;100.00;-17125.47;5092772;28;20031;-87
2023/12/17 06:19:42;;;;;;;33.42;22.98;;;;;;;-148.88;100.00;-17125.47;5094745;28;20035;-86
2023/12/17 06:22:11;;;;;;;32.00;23.27;;;;;;;-148.88;100.00;-17125.47;5093315;28;20016;-87
2023/12/17 06:24:37;;;;;;;25.35;11.50;;;;;;;-148.88;100.00;-17125.47;5094407;28;20035;-86
2023/12/17 06:27:02;;;;;;;26.98;13.05;;;;;;;-148.88;100.00;-17125.47;5093701;28;20024;-87
2023/12/17 06:29:28;;;;;;;32.70;24.35;;;;;;;-148.88;100.00;-17125.47;5095542;28;20035;-86
2023/12/17 06:31:53;;;;;;;30.95;23.05;;;;;;;-148.88;100.00;-17125.47;5095008;28;20024;-86
2023/12/17 06:34:18;;;;;;;28.42;11.55;;;;;;;-148.88;100.00;-17125.47;5092882;28;20032;-87
2023/12/17 06:36:44;;;;;;;27.17;12.23;;;;;;;-148.88;100.00;-17125.47;5094612;28;20103;-87
2023/12/17 06:39:10;;;;;;;26.45;12.07;;;;;;;-148.88;100.00;-17125.47;5093999;28;20401;-87
2023/12/17 06:41:43;;;;;;;27.63;12.38;;;;;;;-148.88;100.00;-17125.47;5094355;28;20034;-86
2023/12/17 06:44:09;;;;;;;31.95;23.40;;;;;;;-148.88;100.00;-17125.47;5092920;28;20023;-86
2023/12/17 06:46:34;;;;;;;29.23;12.65;;;;;;;-148.88;100.00;-17125.47;5094281;28;20371;-84
2023/12/17 06:49:02;;;;;;;28.63;12.40;;;;;;;-148.88;100.00;-17125.47;5092791;28;20036;-87
2023/12/17 06:51:28;;;;;;;27.40;12.30;;;;;;;-148.88;100.00;-17125.47;5093553;28;20028;-86
2023/12/17 06:53:53;;;;;;;34.85;24.27;;;;;;;-148.88;100.00;-17125.47;5093204;28;20371;-85
2023/12/17 06:56:19;;;;;;;26.02;12.38;;;;;;;-148.88;100.00;-17125.47;5094745;28;20020;-85
2023/12/17 06:58:53;;;;;;;30.70;13.20;;;;;;;-148.88;100.00;-17125.47;5093068;28;20161;-84
2023/12/17 07:01:18;;;;;;;31.77;22.90;;;;;;;-148.88;100.00;-17125.47;5094148;28;20031;-84
2023/12/17 07:03:44;;;;;;;28.13;12.50;;;;;;;-148.88;100.00;-17125.47;5093722;28;20386;-85
2023/12/17 07:06:11;;;;;;;33.72;23.15;;;;;;;-148.88;100.00;-17125.47;5094213;28;20468;-84
2023/12/17 07:08:37;;;;;;;27.45;11.43;;;;;;;-148.88;100.00;-17125.47;5094119;28;20027;-85
2023/12/17 07:11:02;;;;;;;25.90;10.55;;;;;;;-148.88;100.00;-17125.47;5094054;28;20024;-84
2023/12/17 07:13:28;;;;;;;30.92;22.75;;;;;;;-148.88;100.00;-17125.47;5093230;28;20028;-85
2023/12/17 07:15:53;;;;;;;27.52;11.80;;;;;;;-148.88;100.00;-17125.47;5094329;28;20066;-85
2023/12/17 07:18:19;;;;;;;27.67;20.70;;;;;;;-148.88;100.00;-17125.47;5093849;28;20031;-85
2023/12/17 07:20:47;;;;;;;31.10;22.73;;;;;;;-148.88;100.00;-17125.47;5092698;28;20123;-85
2023/12/17 07:23:13;;;;;;;24.20;11.02;;;;;;;-148.88;100.00;-17125.47;5092999;28;20428;-84
2023/12/17 07:25:39;;;;;;;26.73;12.13;;;;;;;-148.88;100.00;-17125.47;5094522;28;20023;-86
2023/12/17 07:28:04;;;;;;;30.55;22.02;;;;;;;-148.88;100.00;-17125.47;5093919;28;20027;-84
2023/12/17 07:30:30;;;;;;;31.85;23.15;;;;;;;-148.88;100.00;-17125.47;5097586;28;20020;-85
2023/12/17 07:32:55;;;;;;;27.30;11.80;;;;;;;-148.88;100.00;-17125.47;5098071;28;20026;-86
2023/12/17 07:35:21;;;;;;;32.40;13.10;;;;;;;-148.88;100.00;-17125.47;5098794;28;20345;-86
2023/12/17 07:37:52;;;;;;;29.02;12.57;;;;;;;-148.88;100.00;-17125.47;5098492;28;20016;-85
2023/12/17 07:40:17;;;;;;;25.40;11.90;;;;;;;-148.88;100.00;-17125.47;5096968;28;20030;-84
2023/12/17 07:42:43;;;;;;;32.47;22.65;;;;;;;-148.88;100.00;-17125.47;5098204;28;20024;-85
2023/12/17 07:45:09;;;;;;;25.85;12.10;;;;;;;-148.88;100.00;-17125.47;5098078;28;20024;-85
2023/12/17 07:47:35;;;;;;;29.65;12.68;;;;;;;-148.88;100.00;-17125.47;5096472;28;20031;-86
2023/12/17 07:50:00;;;;;;;29.05;12.85;;;;;;;-148.88;100.00;-17125.47;5096218;28;20024;-87
2023/12/17 07:52:26;;;;;;;29.25;12.75;;;;;;;-148.88;100.00;-17125.47;5097857;28;20024;-85
2023/12/17 07:54:54;;;;;;;36.42;24.30;;;;;;;-148.88;100.00;-17125.47;5097550;28;20020;-85
2023/12/17 07:57:19;;;;;;;35.03;23.88;;;;;;;-148.88;100.00;-17125.47;5097592;28;20027;-84
2023/12/17 07:59:47;;;;;;;28.17;12.20;;;;;;;-148.88;100.00;-17125.47;5097404;28;20024;-85
2023/12/17 08:02:14;;;;;;;29.58;12.50;;;;;;;-148.88;100.00;-17125.47;5097940;28;20012;-84
2023/12/17 08:04:41;;;;;;;27.83;12.15;;;;;;;-148.88;100.00;-17125.47;5096618;28;20204;-85
2023/12/17 08:07:09;;;;;;;35.08;14.13;;;;;;;-148.88;100.00;-17125.47;5096151;28;20099;-84
2023/12/17 08:09:40;;;;;;;28.77;12.43;;;;;;;-148.88;100.00;-17125.47;5096651;28;20035;-85
2023/12/17 08:12:05;;;;;;;25.90;11.68;;;;;;;-148.88;100.00;-17125.47;5096367;28;20371;-84
2023/12/17 08:14:31;;;;;;;28.35;13.15;;;;;;;-148.88;100.00;-17125.47;5096696;28;20031;-84
2023/12/17 08:16:59;;;;;;;28.98;12.52;;;;;;;-148.88;100.00;-17125.47;5096037;28;20396;-85
2023/12/17 08:19:28;;;;;;;31.85;13.50;;;;;;;-148.88;100.00;-17125.47;5096053;28;20038;-84
2023/12/17 08:21:55;;;;;;;30.77;12.95;;;;;;;-148.88;100.00;-17125.47;5095811;28;20494;-84
2023/12/17 08:24:20;;;;;;;37.30;24.75;;;;;;;-148.88;100.00;-17125.47;5096641;28;20463;-85
2023/12/17 08:26:50;;;;;;;30.20;11.38;;;;;;;-148.88;100.00;-17125.47;5095912;28;20024;-85
2023/12/17 08:29:15;;;;;;;32.72;13.73;;;;;;;-148.88;100.00;-17125.47;5097102;28;20471;-86
2023/12/17 08:31:45;;;;;;;30.17;12.65;;;;;;;-148.88;100.00;-17125.47;5096335;28;20024;-85
2023/12/17 08:34:18;;;;;;;30.77;13.05;;;;;;;-148.88;100.00;-17125.47;5097100;28;20028;-85
2023/12/17 08:36:43;;;;;;;34.17;23.73;;;;;;;-148.88;100.00;-17125.47;5097308;28;20020;-88
2023/12/17 08:39:11;;;;;;;29.98;12.63;;;;;;;-148.88;100.00;-17125.47;5095275;28;20086;-85
2023/12/17 08:41:40;;;;;;;34.40;23.45;;;;;;;-148.88;100.00;-17125.47;5095424;28;20034;-86
2023/12/17 08:44:08;;;;;;;27.40;11.70;;;;;;;-148.88;100.00;-17125.47;5096429;28;20058;-84
2023/12/17 08:46:34;;;;;;;27.05;11.40;;;;;;;-148.88;100.00;-17125.47;5095534;28;20115;-84
2023/12/17 08:49:08;;;;;;;34.30;23.00;;;;;;;-148.88;100.00;-17125.47;5095679;28;20062;-86
2023/12/17 08:51:34;;;;;;;31.67;11.75;;;;;;;-148.88;100.00;-17125.47;5096445;28;20196;-87
2023/12/17 08:53:59;;;;;;;26.95;11.32;;;;;;;-148.88;100.00;-17125.47;5096724;28;20028;-84
2023/12/17 08:56:28;;;;;;;26.83;11.15;;;;;;;-148.88;100.00;-17125.47;5096982;28;20102;-86
2023/12/17 08:58:54;;;;;;;30.40;21.02;;;;;;;-148.88;100.00;-17125.47;5096914;28;20024;-85
2023/12/17 09:01:19;;;;;;;26.60;11.80;;;;;;;-148.88;100.00;-17125.47;5095839;28;20024;-85
2023/12/17 09:03:45;;;;;;;28.45;11.50;;;;;;;-148.88;100.00;-17125.47;5095335;28;20035;-84
2023/12/17 09:06:14;;;;;;;23.70;10.23;;;;;;;-148.88;100.00;-17125.47;5096212;28;20034;-85
2023/12/17 09:08:42;;;;;;;27.02;11.27;;;;;;;-148.88;100.00;-17125.47;5096510;28;20081;-86
2023/12/17 09:11:08;;;;;;;25.98;10.90;;;;;;;-148.88;100.00;-17125.47;5094942;28;20024;-86
2023/12/17 09:13:33;;;;;;;26.17;11.32;;;;;;;-148.88;100.00;-17125.47;5096046;28;20149;-86
2023/12/17 09:16:07;;;;;;;24.00;10.45;;;;;;;-148.88;100.00;-17125.47;5096294;28;20024;-85
2023/12/17 09:18:32;;;;;;;27.45;12.48;;;;;;;-148.88;100.00;-17125.47;5096126;28;20508;-85
2023/12/17 09:20:58;;;;;;;24.98;9.50;;;;;;;-148.88;100.00;-17125.47;5096308;28;20087;-86
2023/12/17 09:23:23;;;;;;;27.65;11.45;;;;;;;-148.88;100.00;-17125.47;5097195;28;20024;-87
2023/12/17 09:25:48;;;;;;;33.22;22.98;;;;;;;-148.88;100.00;-17125.47;5095121;28;20501;-85
2023/12/17 09:28:14;;;;;;;27.67;11.73;;;;;;;-148.88;100.00;-17125.47;5094579;28;20024;-86
2023/12/17 09:30:39;;;;;;;26.30;11.57;;;;;;;-148.88;100.00;-17125.47;5095986;28;20035;-86
2023/12/17 09:33:05;;;;;;;24.48;10.88;;;;;;;-148.88;100.00;-17125.47;5094802;28;20053;-86
2023/12/17 09:35:31;;;;;;;25.75;11.10;;;;;;;-148.88;100.00;-17125.47;5096305;28;20024;-86
2023/12/17 09:37:59;;;;;;;25.05;11.13;;;;;;;-148.88;100.00;-17125.47;5094975;28;20512;-85
2023/12/17 09:40:25;;;;;;;24.20;10.00;;;;;;;-148.88;100.00;-17125.47;5095660;28;20060;-85
2023/12/17 09:42:52;;;;;;;28.33;21.15;;;;;;;-148.88;100.00;-17125.47;5095596;28;20431;-85
2023/12/17 09:45:18;;;;;;;27.45;11.55;;;;;;;-148.88;100.00;-17125.47;5094559;28;20441;-86
2023/12/17 09:47:51;;;;;;;24.95;11.43;;;;;;;-148.88;100.00;-17125.47;5096268;28;20020;-86
2023/12/17 09:50:16;;;;;;;22.30;10.05;;;;;;;-148.88;100.00;-17125.47;5096512;28;20519;-84
2023/12/17 09:52:44;;;;;;;25.17;10.90;;;;;;;-148.88;100.00;-17125.47;5096057;28;20024;-85
2023/12/17 09:55:10;;;;;;;24.85;11.02;;;;;;;-148.88;100.00;-17125.47;5095894;28;20418;-85
2023/12/17 09:57:36;;;;;;;29.25;20.10;;;;;;;-148.88;100.00;-17125.47;5094572;28;20054;-86
2023/12/17 10:00:03;;;;;;;21.58;9.93;;;;;;;-148.88;100.00;-17125.47;5095603;28;20494;-85
2023/12/17 10:02:34;;;;;;;23.67;9.27;;;;;;;-148.88;100.00;-17125.47;5095674;28;20530;-85
2023/12/17 10:05:02;;;;;;;21.63;9.68;;;;;;;-148.88;100.00;-17125.47;5095672;28;20067;-85
2023/12/17 10:07:28;;;;;;;24.33;10.27;;;;;;;-148.88;100.00;-17125.47;5094217;28;20024;-85
2023/12/17 10:09:53;;;;;;;20.67;9.48;;;;;;;-148.88;100.00;-17125.47;5093497;28;20089;-85
2023/12/17 10:12:18;;;;;;;23.00;9.38;;;;;;;-148.88;100.00;-17125.47;5095595;28;20103;-85
2023/12/17 10:14:44;;;;;;;16.70;8.05;;;;;;;-148.88;100.00;-17125.47;5094015;28;20402;-85
2023/12/17 10:17:11;;;;;;;17.83;8.80;;;;;;;-148.88;100.00;-17125.47;5094286;28;20109;-84
2023/12/17 10:19:37;;;;;;;18.95;9.18;;;;;;;-148.88;100.00;-17125.47;5094707;28;20491;-85
2023/12/17 10:22:08;;;;;;;21.30;8.43;;;;;;;-148.88;100.00;-17125.47;5096151;28;20023;-84
2023/12/17 10:24:38;;;;;;;17.83;7.97;;;;;;;-148.88;100.00;-17125.47;5096446;28;20024;-84
2023/12/17 10:27:20;;;;;;;19.95;9.60;;;;;;;-148.88;100.00;-17125.47;5095625;28;20024;-84
2023/12/17 10:29:54;;;;;;;18.38;7.95;;;;;;;-148.88;100.00;-17125.47;5094689;28;20020;-85
2023/12/17 10:32:26;;;;;;;19.88;15.57;;;;;;;-148.88;100.00;-17125.47;5095243;28;20024;-86
2023/12/17 10:34:53;;;;;;;19.02;7.78;;;;;;;-148.88;100.00;-17125.47;5095434;28;20395;-84
2023/12/17 10:37:20;;;;;;;16.25;7.60;;;;;;;-148.88;100.00;-17125.47;5095456;28;20023;-85
2023/12/17 10:39:53;;;;;;;17.50;7.65;;;;;;;-148.88;100.00;-17125.47;5095272;28;20059;-85
2023/12/17 10:42:43;;;;;;;18.10;14.18;;;;;;;-148.88;100.00;-17125.47;5093762;28;20028;-85
2023/12/17 10:45:11;;;;;;;15.90;7.95;;;;;;;-148.88;100.00;-17125.47;5091375;28;20390;-85
2023/12/17 10:47:38;;;;;;;19.08;14.80;;;;;;;-148.88;100.00;-17125.47;5094597;28;20055;-85
2023/12/17 10:50:04;;;;;;;16.30;7.75;;;;;;;-148.88;100.00;-17125.47;5094115;28;20051;-85
2023/12/17 10:52:32;;;;;;;18.05;14.60;;;;;;;-148.88;100.00;-17125.47;5093094;28;20577;-86